Nettlecreek, Illinois
Current Conditions -  °F | °C
As of 2:35 AM on Saturday 29 Nov 2014 (Local Time) from KC09 Reporting Station
Clear Clear  
Wind Chill: 25°   Ceiling: Unl
Heat Index: 32°   Visibility: 10mi
Dew Point: 30°   Wind: 9mph
Humidity: 92%   Direction: 170°S
Pressure: 29.8"   Gusts: NA
Location:  41.5124°N, 88.5214°W
Report Text: KC09 290835Z AUTO 17008KT 10SM CLR 00/M01 A2980 RMK AO2 T00021009
Loading
Personal Weather Stations






























Interactive Weather Map New forecast layout! Learn more

10-Day Weather Forecast

Advertisements
Track Severe Weather on mobile